Time;durP1;ratioP1;P1;durP2;ratioP2;P2;SDS_P1;SDS_P2;PMS_P1;PMS_P2;Temp;Humidity;BMP_temperature;BMP_pressure;BME280_temperature;BME280_humidity;BME280_pressure;Samples;Min_cycle;Max_cycle;Signal;HPM_P1;HPM_P2
2024/01/01 00:02:19;;;;;;;15.65;6.90;;;;;;;9.26;100.00;99695.69;5084154;28;20094;-65
2024/01/01 00:05:08;;;;;;;15.45;6.40;;;;;;;9.15;100.00;99711.28;5091650;28;20422;-67
2024/01/01 00:07:57;;;;;;;16.88;5.75;;;;;;;9.08;100.00;99718.97;5075170;28;20526;-66
2024/01/01 00:10:47;;;;;;;15.60;6.30;;;;;;;9.00;100.00;99712.25;5079067;28;20558;-66
2024/01/01 00:13:35;;;;;;;18.17;6.00;;;;;;;8.96;100.00;99703.81;5122519;27;20051;-66
2024/01/01 00:16:23;;;;;;;12.30;5.82;;;;;;;8.91;100.00;99711.22;4754608;27;10000177;-66
2024/01/01 00:19:12;;;;;;;16.45;5.93;;;;;;;8.90;100.00;99713.13;5077003;28;20500;-66
2024/01/01 00:22:02;;;;;;;15.02;5.50;;;;;;;8.91;100.00;99712.03;5111523;27;20406;-66
2024/01/01 00:24:50;;;;;;;11.95;4.90;;;;;;;8.90;100.00;99720.47;5131366;27;20169;-67
2024/01/01 00:27:38;;;;;;;15.60;5.57;;;;;;;8.88;100.00;99723.47;5103141;28;20101;-66
2024/01/01 00:30:26;;;;;;;10.10;4.00;;;;;;;8.85;100.00;99713.19;5068401;27;20517;-67
2024/01/01 00:33:14;;;;;;;9.95;3.60;;;;;;;8.87;100.00;99737.31;5069410;28;20059;-66
2024/01/01 00:36:02;;;;;;;6.68;3.40;;;;;;;8.82;100.00;99735.44;5111548;28;20047;-66
2024/01/01 00:38:51;;;;;;;8.75;3.40;;;;;;;8.78;100.00;99722.72;5112701;28;20071;-65
2024/01/01 00:41:39;;;;;;;9.27;3.53;;;;;;;8.83;100.00;99704.50;5097206;28;20052;-64
2024/01/01 00:44:27;;;;;;;8.05;3.30;;;;;;;8.80;100.00;99715.91;5098656;28;20127;-66
2024/01/01 00:47:15;;;;;;;9.43;3.67;;;;;;;8.82;100.00;99702.06;5098188;28;20071;-66
2024/01/01 00:50:04;;;;;;;7.32;3.22;;;;;;;8.79;100.00;99717.00;5097864;28;20210;-66
2024/01/01 00:52:52;;;;;;;11.80;3.63;;;;;;;8.69;100.00;99726.06;5097047;28;20114;-66
2024/01/01 00:55:40;;;;;;;7.90;3.30;;;;;;;8.58;100.00;99716.34;5083564;28;20043;-67
2024/01/01 00:58:29;;;;;;;8.77;3.40;;;;;;;8.60;100.00;99727.75;5103020;28;20047;-67
2024/01/01 01:01:17;;;;;;;10.18;3.70;;;;;;;8.61;100.00;99733.97;5090616;28;20415;-66
2024/01/01 01:04:05;;;;;;;9.82;3.03;;;;;;;8.55;100.00;99730.50;5111859;28;20538;-66
2024/01/01 01:06:55;;;;;;;10.65;3.58;;;;;;;8.54;100.00;99737.03;5106743;28;20173;-66
2024/01/01 01:09:43;;;;;;;8.82;3.80;;;;;;;8.53;100.00;99732.66;5097691;28;20101;-67
2024/01/01 01:12:31;;;;;;;9.80;3.63;;;;;;;8.38;100.00;99733.53;5097414;28;20059;-67
2024/01/01 01:15:20;;;;;;;6.18;3.25;;;;;;;8.35;100.00;99730.59;5096608;28;20039;-67
2024/01/01 01:18:08;;;;;;;7.25;3.17;;;;;;;8.37;100.00;99723.78;5112857;28;20054;-67
2024/01/01 01:20:56;;;;;;;7.88;3.42;;;;;;;8.38;100.00;99730.84;5120467;27;20396;-65
2024/01/01 01:23:45;;;;;;;7.60;3.00;;;;;;;8.27;100.00;99723.81;5100259;27;20042;-67
2024/01/01 01:26:33;;;;;;;8.38;3.33;;;;;;;8.30;100.00;99734.94;5110624;28;20180;-68
2024/01/01 01:29:21;;;;;;;8.45;3.22;;;;;;;8.28;100.00;99741.75;5079109;28;20123;-67
2024/01/01 01:32:09;;;;;;;6.93;3.30;;;;;;;8.26;100.00;99743.94;5076451;28;20123;-67
2024/01/01 01:34:57;;;;;;;10.95;4.10;;;;;;;8.27;100.00;99745.53;5091639;28;20051;-67
2024/01/01 01:37:45;;;;;;;16.55;7.45;;;;;;;8.25;100.00;99753.13;5096761;28;20052;-67
2024/01/01 01:40:33;;;;;;;10.40;3.53;;;;;;;8.28;100.00;99758.84;5120409;27;20050;-67
2024/01/01 01:43:24;;;;;;;8.05;3.38;;;;;;;8.24;100.00;99767.81;5120694;27;20043;-67
2024/01/01 01:46:14;;;;;;;6.55;3.30;;;;;;;8.22;100.00;99761.84;5086832;28;20528;-66
2024/01/01 01:49:02;;;;;;;9.13;3.53;;;;;;;8.23;100.00;99749.91;5100460;28;20125;-66
2024/01/01 01:51:50;;;;;;;7.50;3.60;;;;;;;8.35;100.00;99744.16;5115752;28;20448;-67
2024/01/01 01:54:38;;;;;;;10.18;4.10;;;;;;;8.38;100.00;99736.25;5114881;28;20126;-66
2024/01/01 01:57:27;;;;;;;8.40;3.42;;;;;;;8.31;100.00;99746.63;5116011;28;20552;-65
2024/01/01 02:00:15;;;;;;;8.32;3.25;;;;;;;8.27;100.00;99730.09;5107232;27;20070;-66
2024/01/01 02:03:05;;;;;;;8.55;3.40;;;;;;;8.27;100.00;99750.97;5107634;27;20111;-66
2024/01/01 02:05:55;;;;;;;7.07;2.80;;;;;;;8.23;100.00;99756.16;5136327;27;20039;-66
2024/01/01 02:08:44;;;;;;;8.07;3.20;;;;;;;8.26;100.00;99752.06;5107251;28;20039;-66
2024/01/01 02:11:32;;;;;;;9.15;3.30;;;;;;;8.19;100.00;99754.28;5094883;28;20087;-66
2024/01/01 02:14:20;;;;;;;8.20;3.38;;;;;;;8.19;100.00;99759.69;5069138;28;20048;-64
2024/01/01 02:17:08;;;;;;;8.75;3.30;;;;;;;8.16;100.00;99752.94;5078759;28;20046;-67
2024/01/01 02:19:56;;;;;;;8.30;3.00;;;;;;;8.15;100.00;99758.63;5096058;27;20120;-66
2024/01/01 02:22:52;;;;;;;9.77;3.53;;;;;;;8.19;100.00;99765.13;5134971;27;20043;-67
2024/01/01 02:25:40;;;;;;;10.82;3.72;;;;;;;8.17;100.00;99761.88;5121774;27;20051;-67
2024/01/01 02:28:28;;;;;;;10.50;3.72;;;;;;;8.17;100.00;99757.25;5099005;28;20047;-67
2024/01/01 02:31:16;;;;;;;9.38;3.20;;;;;;;8.19;100.00;99755.06;5100513;28;20059;-66
2024/01/01 02:34:04;;;;;;;8.23;3.17;;;;;;;8.17;100.00;99767.31;5114699;28;20050;-66
2024/01/01 02:36:53;;;;;;;11.57;3.53;;;;;;;8.14;100.00;99762.44;5113842;28;20144;-66
2024/01/01 02:39:41;;;;;;;10.55;3.47;;;;;;;8.15;100.00;99767.56;5121794;27;20548;-66
2024/01/01 02:42:29;;;;;;;9.50;3.20;;;;;;;8.20;100.00;99759.44;5107642;28;20595;-67
2024/01/01 02:45:20;;;;;;;10.73;3.47;;;;;;;8.35;100.00;99758.53;5099435;28;20071;-67
2024/01/01 02:48:08;;;;;;;7.05;3.10;;;;;;;8.35;100.00;99780.25;5115403;28;20048;-66
2024/01/01 02:50:56;;;;;;;9.25;3.60;;;;;;;8.22;100.00;99762.66;5084514;28;20504;-67
2024/01/01 02:53:44;;;;;;;11.20;3.25;;;;;;;8.23;100.00;99774.34;5109279;27;20043;-67
2024/01/01 02:56:32;;;;;;;11.35;3.00;;;;;;;8.19;100.00;99767.84;5100548;28;20268;-66
2024/01/01 02:59:20;;;;;;;7.63;2.95;;;;;;;8.16;100.00;99781.97;5116622;27;20220;-67
2024/01/01 03:02:09;;;;;;;13.02;4.18;;;;;;;8.18;100.00;99769.75;5099073;28;20040;-67
2024/01/01 03:04:58;;;;;;;9.35;3.15;;;;;;;8.18;100.00;99774.34;5112540;28;20054;-66
2024/01/01 03:07:46;;;;;;;9.48;2.90;;;;;;;8.14;100.00;99781.44;5113782;28;20055;-67
2024/01/01 03:10:34;;;;;;;10.68;3.30;;;;;;;8.11;100.00;99769.22;5124699;27;20530;-67
2024/01/01 03:13:22;;;;;;;9.75;3.47;;;;;;;8.15;100.00;99775.72;5131407;27;20143;-66
2024/01/01 03:16:10;;;;;;;12.25;3.60;;;;;;;8.11;100.00;99772.75;5085847;28;20075;-66
2024/01/01 03:18:58;;;;;;;10.65;3.33;;;;;;;8.10;100.00;99790.13;5098964;28;20492;-66
2024/01/01 03:21:50;;;;;;;10.38;3.20;;;;;;;8.11;100.00;99778.19;5118389;27;20510;-67
2024/01/01 03:24:38;;;;;;;11.18;3.50;;;;;;;8.09;100.00;99777.63;5110264;28;20036;-66
2024/01/01 03:27:26;;;;;;;11.60;3.42;;;;;;;8.18;100.00;99777.06;5114411;28;20122;-67
2024/01/01 03:30:14;;;;;;;9.13;3.10;;;;;;;8.19;100.00;99776.78;5099492;27;20101;-66
2024/01/01 03:33:02;;;;;;;9.55;3.28;;;;;;;8.15;100.00;99780.31;5114211;28;20069;-66
2024/01/01 03:35:50;;;;;;;11.15;3.72;;;;;;;8.21;100.00;99781.94;5113130;28;20040;-66
2024/01/01 03:38:39;;;;;;;10.50;3.30;;;;;;;8.17;100.00;99792.53;5098670;28;20046;-67
2024/01/01 03:41:27;;;;;;;9.48;2.95;;;;;;;8.17;100.00;99789.81;5106756;27;20051;-66
2024/01/01 03:44:15;;;;;;;10.45;3.47;;;;;;;8.11;100.00;99786.31;5104372;27;20491;-66
2024/01/01 03:47:03;;;;;;;10.68;3.38;;;;;;;8.08;100.00;99791.47;5098260;28;20046;-66
2024/01/01 03:49:51;;;;;;;9.23;3.00;;;;;;;8.13;100.00;99785.22;5098236;28;20086;-67
2024/01/01 03:52:39;;;;;;;13.20;3.65;;;;;;;8.10;100.00;99786.59;5100010;28;20044;-66
2024/01/01 03:55:27;;;;;;;11.73;3.50;;;;;;;8.07;100.00;99796.09;5112642;28;20051;-67
2024/01/01 03:58:15;;;;;;;15.25;3.63;;;;;;;8.07;100.00;99785.25;5111904;28;20059;-66
2024/01/01 04:01:04;;;;;;;12.50;3.33;;;;;;;8.06;100.00;99788.25;5113975;28;20526;-66
2024/01/01 04:03:55;;;;;;;13.75;3.90;;;;;;;8.07;100.00;99785.25;5146776;27;20043;-64
2024/01/01 04:06:43;;;;;;;10.45;3.08;;;;;;;8.03;100.00;99778.75;5128286;28;20092;-66
2024/01/01 04:09:31;;;;;;;11.15;3.05;;;;;;;8.06;100.00;99783.63;5115921;28;20415;-66
2024/01/01 04:12:19;;;;;;;11.57;3.13;;;;;;;8.01;100.00;99780.94;5111816;28;21208;-66
2024/01/01 04:15:07;;;;;;;12.80;3.60;;;;;;;7.97;100.00;99784.47;5117716;28;20105;-65
2024/01/01 04:17:55;;;;;;;12.40;3.50;;;;;;;7.97;100.00;99782.56;5116216;28;20044;-66
2024/01/01 04:20:43;;;;;;;9.73;3.40;;;;;;;8.00;100.00;99778.50;5082079;27;20050;-66
2024/01/01 04:23:31;;;;;;;12.15;3.38;;;;;;;7.96;100.00;99791.81;5109829;28;20081;-67
2024/01/01 04:26:19;;;;;;;10.70;3.00;;;;;;;7.96;100.00;99797.22;5096764;28;20487;-66
2024/01/01 04:29:07;;;;;;;9.45;2.95;;;;;;;8.02;100.00;99779.84;5112514;28;20145;-66
2024/01/01 04:31:55;;;;;;;9.55;3.20;;;;;;;7.99;100.00;99788.53;5121996;27;20103;-66
2024/01/01 04:34:43;;;;;;;9.05;2.95;;;;;;;8.00;100.00;99795.56;5121904;27;20046;-68
2024/01/01 04:37:32;;;;;;;12.63;3.20;;;;;;;8.06;100.00;99794.47;5080758;28;20565;-67
2024/01/01 04:40:20;;;;;;;8.60;3.05;;;;;;;7.95;100.00;99802.91;5093035;28;20051;-67
2024/01/01 04:43:08;;;;;;;9.15;3.15;;;;;;;7.90;100.00;99792.91;5089919;28;20198;-64
2024/01/01 04:45:56;;;;;;;8.07;2.67;;;;;;;7.93;100.00;99796.94;5078256;28;20121;-67
2024/01/01 04:48:44;;;;;;;8.77;2.97;;;;;;;7.97;100.00;99796.13;5093240;28;20139;-67
2024/01/01 04:51:32;;;;;;;13.63;5.28;;;;;;;7.99;100.00;99791.25;5086799;28;20048;-66
2024/01/01 04:54:20;;;;;;;13.50;3.50;;;;;;;7.90;100.00;99812.69;5097877;28;20127;-67
2024/01/01 04:57:08;;;;;;;8.50;2.92;;;;;;;7.96;100.00;99813.50;5112886;28;20040;-66
2024/01/01 04:59:56;;;;;;;12.82;3.35;;;;;;;7.99;100.00;99812.94;5097828;28;20538;-67
2024/01/01 05:02:44;;;;;;;10.18;2.70;;;;;;;8.03;100.00;99815.91;5114456;27;20058;-67
2024/01/01 05:05:32;;;;;;;13.25;3.25;;;;;;;7.95;100.00;99820.00;5113244;28;20057;-67
2024/01/01 05:08:20;;;;;;;9.07;2.95;;;;;;;7.92;100.00;99820.56;5093465;28;20135;-67
2024/01/01 05:11:08;;;;;;;12.35;3.30;;;;;;;7.99;100.00;99826.50;5078157;28;20385;-66
2024/01/01 05:13:56;;;;;;;12.38;3.53;;;;;;;7.98;100.00;99822.16;5092121;28;20048;-67
2024/01/01 05:16:47;;;;;;;10.60;3.38;;;;;;;7.97;100.00;99823.25;5090180;28;20050;-67
2024/01/01 05:19:35;;;;;;;9.40;2.90;;;;;;;7.95;100.00;99833.56;5090771;28;20044;-66
2024/01/01 05:22:23;;;;;;;7.78;2.60;;;;;;;7.92;100.00;99823.28;5097868;28;20112;-66
2024/01/01 05:25:12;;;;;;;13.00;3.80;;;;;;;7.97;100.00;99844.94;5106690;28;20445;-65
2024/01/01 05:28:00;;;;;;;11.65;3.35;;;;;;;7.93;100.00;99830.31;5076956;28;20375;-66
2024/01/01 05:30:47;;;;;;;9.77;3.10;;;;;;;7.90;100.00;99833.56;5102228;28;20439;-67
2024/01/01 05:33:36;;;;;;;10.60;3.17;;;;;;;7.83;100.00;99839.28;5097702;28;20048;-67
2024/01/01 05:36:24;;;;;;;11.07;3.28;;;;;;;8.11;100.00;99846.00;5092600;28;20044;-66
2024/01/01 05:39:12;;;;;;;12.00;3.38;;;;;;;8.05;100.00;99843.56;5111563;28;20352;-65
2024/01/01 05:42:01;;;;;;;8.50;2.95;;;;;;;7.91;100.00;99851.47;5095733;28;20422;-66
2024/01/01 05:44:49;;;;;;;11.30;3.05;;;;;;;7.92;100.00;99847.69;5104927;28;20085;-66
2024/01/01 05:47:37;;;;;;;12.10;3.03;;;;;;;7.86;100.00;99849.59;5076464;28;20525;-66
2024/01/01 05:50:26;;;;;;;10.70;3.05;;;;;;;7.84;100.00;99848.22;5091050;28;20051;-67
2024/01/01 05:53:15;;;;;;;13.65;3.35;;;;;;;7.84;100.00;99854.47;5077822;28;20044;-66
2024/01/01 05:56:04;;;;;;;8.73;2.80;;;;;;;7.94;100.00;99850.94;5091593;28;20403;-66
2024/01/01 05:58:52;;;;;;;8.15;2.47;;;;;;;7.95;100.00;99847.13;5091888;28;20051;-66
2024/01/01 06:01:40;;;;;;;9.90;3.05;;;;;;;7.88;100.00;99865.56;5094772;28;20040;-66
2024/01/01 06:04:28;;;;;;;10.98;2.83;;;;;;;7.93;100.00;99870.19;5115101;28;20122;-66
2024/01/01 06:07:16;;;;;;;12.80;3.47;;;;;;;7.90;100.00;99877.78;5098723;28;20051;-66
2024/01/01 06:10:04;;;;;;;12.10;3.60;;;;;;;7.83;100.00;99879.16;5091451;28;20119;-66
2024/01/01 06:12:52;;;;;;;11.98;3.55;;;;;;;7.68;100.00;99891.63;5104086;28;20177;-66
2024/01/01 06:15:40;;;;;;;15.07;3.47;;;;;;;7.58;100.00;99897.06;5096512;28;20126;-66
2024/01/01 06:18:28;;;;;;;12.63;3.63;;;;;;;7.54;100.00;99895.16;5091974;28;20410;-65
2024/01/01 06:21:17;;;;;;;11.57;3.15;;;;;;;7.54;100.00;99906.81;5111299;28;20530;-66
2024/01/01 06:24:05;;;;;;;10.02;3.00;;;;;;;7.60;100.00;99911.16;5107616;28;20521;-66
2024/01/01 06:26:53;;;;;;;9.15;2.70;;;;;;;7.61;100.00;99915.50;5124420;27;20451;-66
2024/01/01 06:29:41;;;;;;;10.48;3.33;;;;;;;7.75;100.00;99907.63;5111981;28;20130;-66
2024/01/01 06:32:29;;;;;;;10.60;3.10;;;;;;;7.73;100.00;99925.25;5115734;28;20450;-66
2024/01/01 06:35:17;;;;;;;9.95;2.85;;;;;;;7.67;100.00;99937.97;5101211;28;20079;-66
2024/01/01 06:38:05;;;;;;;12.98;3.00;;;;;;;7.62;100.00;99941.50;5089003;28;20036;-65
2024/01/01 06:40:54;;;;;;;9.70;3.20;;;;;;;7.64;100.00;99943.94;5080796;28;20075;-65
2024/01/01 06:43:42;;;;;;;11.55;3.00;;;;;;;7.65;100.00;99956.44;5115870;27;20437;-65
2024/01/01 06:46:30;;;;;;;9.65;3.22;;;;;;;7.65;100.00;99957.25;5135490;27;20047;-64
2024/01/01 06:49:18;;;;;;;11.10;3.20;;;;;;;7.67;100.00;99948.81;5116237;27;20051;-66
2024/01/01 06:52:07;;;;;;;8.95;2.85;;;;;;;7.64;100.00;99943.94;5114533;28;20061;-65
2024/01/01 06:54:55;;;;;;;12.02;3.20;;;;;;;7.73;100.00;99952.38;5115394;27;20078;-65
2024/01/01 06:57:43;;;;;;;14.63;3.55;;;;;;;7.56;100.00;99958.88;5114414;28;20047;-66
2024/01/01 07:00:31;;;;;;;14.40;3.58;;;;;;;7.44;100.00;99961.00;4376597;28;10000767;-66
2024/01/01 07:03:21;;;;;;;12.15;3.10;;;;;;;7.40;100.00;99968.03;5085586;28;20048;-66
2024/01/01 07:06:09;;;;;;;13.27;3.47;;;;;;;7.35;100.00;99978.88;5095678;28;20047;-66
2024/01/01 07:08:57;;;;;;;14.68;3.78;;;;;;;7.33;100.00;99975.63;5111270;28;20058;-66
2024/01/01 07:11:45;;;;;;;12.60;3.53;;;;;;;7.31;100.00;99975.06;5095067;28;20043;-67
2024/01/01 07:14:33;;;;;;;12.32;3.70;;;;;;;7.29;100.00;99977.22;5077436;28;20064;-66
2024/01/01 07:17:21;;;;;;;12.73;3.33;;;;;;;7.34;100.00;99988.09;5069225;28;20123;-66
2024/01/01 07:20:10;;;;;;;9.43;2.90;;;;;;;7.37;100.00;99985.66;5090710;28;20044;-66
2024/01/01 07:22:59;;;;;;;11.30;3.13;;;;;;;7.47;100.00;99999.22;5075150;28;20044;-66
2024/01/01 07:25:47;;;;;;;11.20;3.22;;;;;;;7.48;100.00;99991.94;5072162;28;20045;-65
2024/01/01 07:28:35;;;;;;;8.13;2.72;;;;;;;7.49;100.00;100007.09;5091043;28;20040;-66
2024/01/01 07:31:25;;;;;;;10.38;3.10;;;;;;;7.50;100.00;100003.28;5075446;28;20044;-66
2024/01/01 07:34:15;;;;;;;10.63;3.20;;;;;;;7.49;100.00;100004.38;5089087;28;20536;-66
2024/01/01 07:37:04;;;;;;;10.25;3.20;;;;;;;7.48;100.00;100016.31;5088636;28;20051;-67
2024/01/01 07:39:52;;;;;;;12.40;3.50;;;;;;;7.49;100.00;100017.13;5093471;28;20534;-66
2024/01/01 07:42:40;;;;;;;17.45;3.88;;;;;;;7.52;100.00;100028.25;5092509;28;20511;-66
2024/01/01 07:45:28;;;;;;;16.17;3.20;;;;;;;7.55;100.00;100016.88;5056487;28;20081;-65
2024/01/01 07:48:16;;;;;;;13.48;3.50;;;;;;;7.55;100.00;100029.59;5052398;28;20055;-65
2024/01/01 07:51:05;;;;;;;11.88;3.60;;;;;;;7.49;100.00;100023.34;5087493;28;20060;-66
2024/01/01 07:53:53;;;;;;;13.80;3.50;;;;;;;7.56;100.00;100039.38;5054550;28;20548;-65
2024/01/01 07:56:44;;;;;;;10.85;3.25;;;;;;;7.55;100.00;100038.56;5079452;28;20547;-66
2024/01/01 07:59:33;;;;;;;10.18;3.38;;;;;;;7.69;100.00;100044.28;5074299;28;20055;-66
2024/01/01 08:02:21;;;;;;;10.98;3.30;;;;;;;7.58;100.00;100037.22;5070892;28;20434;-66
2024/01/01 08:05:13;;;;;;;15.75;4.50;;;;;;;7.61;100.00;100034.78;5101707;28;20048;-66
2024/01/01 08:08:01;;;;;;;11.55;3.53;;;;;;;7.66;100.00;100045.63;5090518;28;20048;-66
2024/01/01 08:10:49;;;;;;;15.05;4.03;;;;;;;7.61;100.00;100059.16;5090821;28;20063;-66
2024/01/01 08:13:38;;;;;;;18.58;5.38;;;;;;;7.59;100.00;100060.53;5099578;28;20064;-66
2024/01/01 08:16:26;;;;;;;17.15;4.22;;;;;;;7.69;100.00;100071.38;5109103;28;20048;-67
2024/01/01 08:19:15;;;;;;;15.80;4.10;;;;;;;7.64;100.00;100063.25;5118785;28;20054;-64
2024/01/01 08:22:03;;;;;;;10.77;3.60;;;;;;;7.43;100.00;100073.19;5104324;28;20048;-64
2024/01/01 08:24:51;;;;;;;12.13;3.40;;;;;;;7.36;100.00;100088.88;5116364;28;20051;-66
2024/01/01 08:27:39;;;;;;;15.07;3.90;;;;;;;7.31;100.00;100087.00;5101018;28;20040;-64
2024/01/01 08:30:27;;;;;;;14.35;3.65;;;;;;;7.31;100.00;100094.28;5105406;28;20044;-66
2024/01/01 08:33:16;;;;;;;12.60;3.75;;;;;;;7.36;100.00;100094.31;5116209;27;20054;-66
2024/01/01 08:36:05;;;;;;;26.77;8.45;;;;;;;7.44;100.00;100096.53;5102546;28;20092;-66
2024/01/01 08:38:53;;;;;;;15.18;4.22;;;;;;;7.65;100.00;100102.84;5108450;28;20051;-66
2024/01/01 08:41:45;;;;;;;23.45;6.57;;;;;;;7.61;100.00;100107.97;5109663;28;20051;-66
2024/01/01 08:44:33;;;;;;;14.43;3.70;;;;;;;7.56;100.00;100115.28;5094718;27;20043;-68
2024/01/01 08:47:21;;;;;;;22.83;5.97;;;;;;;7.60;100.00;100108.22;5090009;28;20417;-66
2024/01/01 08:50:10;;;;;;;17.27;5.38;;;;;;;7.56;100.00;100116.09;5059862;28;20054;-66
2024/01/01 08:52:58;;;;;;;13.45;4.40;;;;;;;7.59;100.00;100115.56;5101785;28;20484;-66
2024/01/01 08:55:47;;;;;;;16.40;4.72;;;;;;;7.54;100.00;100120.97;5082593;28;20048;-67
2024/01/01 08:58:35;;;;;;;17.40;4.80;;;;;;;7.54;100.00;100118.25;5097111;28;20044;-66
2024/01/01 09:01:23;;;;;;;21.70;5.47;;;;;;;7.58;100.00;100123.97;5083975;28;20043;-67
2024/01/01 09:04:11;;;;;;;11.73;4.22;;;;;;;7.57;100.00;100133.97;5076280;28;20044;-67
2024/01/01 09:07:03;;;;;;;13.77;4.50;;;;;;;7.55;100.00;100135.31;5097150;27;20074;-67
2024/01/01 09:09:51;;;;;;;21.15;5.88;;;;;;;7.61;100.00;100135.09;5108394;27;20127;-67
2024/01/01 09:12:39;;;;;;;18.15;5.20;;;;;;;7.64;100.00;100147.28;5097538;27;20053;-67
2024/01/01 09:15:27;;;;;;;22.25;6.47;;;;;;;7.77;100.00;100144.09;5100011;28;20130;-66
2024/01/01 09:18:15;;;;;;;14.35;4.80;;;;;;;7.71;100.00;100150.56;5097528;28;20074;-66
2024/01/01 09:21:04;;;;;;;13.05;4.10;;;;;;;7.64;100.00;100153.53;5108605;28;20052;-66
2024/01/01 09:23:59;;;;;;;12.90;3.65;;;;;;;7.65;100.00;100170.63;5091942;28;20119;-67
2024/01/01 09:26:47;;;;;;;41.42;11.95;;;;;;;7.68;100.00;100165.47;5080319;28;20512;-67
2024/01/01 09:29:36;;;;;;;42.63;11.18;;;;;;;7.75;100.00;100167.94;5111393;28;20047;-67
2024/01/01 09:32:23;;;;;;;12.10;3.15;;;;;;;7.69;100.00;100163.56;5092872;28;20051;-67
2024/01/01 09:35:12;;;;;;;13.32;3.95;;;;;;;7.75;100.00;100178.00;5108012;28;20047;-67
2024/01/01 09:38:02;;;;;;;19.23;4.57;;;;;;;7.71;100.00;100182.31;5108566;28;20053;-66
2024/01/01 09:40:54;;;;;;;13.88;3.10;;;;;;;7.68;100.00;100181.75;5109981;28;20055;-65
2024/01/01 09:43:44;;;;;;;10.63;3.67;;;;;;;7.66;100.00;100183.91;5091303;28;20043;-67
2024/01/01 09:46:35;;;;;;;13.38;3.25;;;;;;;7.65;100.00;100189.59;5112317;28;20043;-66
2024/01/01 09:49:24;;;;;;;11.25;3.67;;;;;;;7.64;100.00;100188.78;5075846;28;20069;-67
2024/01/01 09:52:16;;;;;;;11.27;3.40;;;;;;;7.61;100.00;100199.34;5089589;28;20044;-67
2024/01/01 09:55:04;;;;;;;8.80;2.83;;;;;;;7.56;100.00;100200.13;5112528;28;20051;-67
2024/01/01 09:57:53;;;;;;;8.02;2.90;;;;;;;7.57;100.00;100211.78;5111804;28;20046;-67
2024/01/01 10:00:41;;;;;;;14.43;3.90;;;;;;;7.59;100.00;100218.56;5113650;28;20039;-66
2024/01/01 10:03:29;;;;;;;7.55;2.55;;;;;;;7.60;100.00;100219.38;5100895;28;20108;-67
2024/01/01 10:06:17;;;;;;;13.40;3.78;;;;;;;7.67;100.00;100211.81;5098742;28;20046;-68
2024/01/01 10:09:09;;;;;;;9.88;3.10;;;;;;;7.67;100.00;100218.09;5117238;28;20100;-66
2024/01/01 10:12:09;;;;;;;16.30;4.32;;;;;;;7.71;100.00;100220.25;5101275;28;20043;-66
2024/01/01 10:14:58;;;;;;;12.23;3.58;;;;;;;7.71;100.00;100220.25;5109221;27;20059;-67
2024/01/01 10:17:48;;;;;;;12.00;3.88;;;;;;;7.75;100.00;100232.22;5106234;28;20039;-67
2024/01/01 10:20:37;;;;;;;12.02;3.92;;;;;;;7.78;100.00;100228.97;5117295;27;20040;-67
2024/01/01 10:23:26;;;;;;;14.15;3.55;;;;;;;7.83;100.00;100223.56;5082683;28;20047;-67
2024/01/01 10:26:15;;;;;;;12.80;4.38;;;;;;;7.85;100.00;100227.66;5070893;28;20377;-66
2024/01/01 10:29:03;;;;;;;13.73;3.60;;;;;;;7.99;100.00;100240.75;5097637;28;20048;-67
2024/01/01 10:31:51;;;;;;;12.57;3.65;;;;;;;7.94;100.00;100246.13;5072494;28;20045;-66
2024/01/01 10:34:39;;;;;;;16.02;4.65;;;;;;;7.93;100.00;100245.31;5095223;28;20074;-67
2024/01/01 10:37:28;;;;;;;15.40;3.80;;;;;;;8.03;100.00;100258.09;5081784;28;20043;-66
2024/01/01 10:40:16;;;;;;;12.43;3.30;;;;;;;7.96;100.00;100265.66;5099809;28;20047;-66
2024/01/01 10:43:09;;;;;;;12.43;3.90;;;;;;;7.84;100.00;100260.44;5107898;27;20047;-67
2024/01/01 10:46:03;;;;;;;12.10;3.83;;;;;;;7.83;100.00;100254.22;5103116;28;20077;-67
2024/01/01 10:48:52;;;;;;;11.68;3.30;;;;;;;7.75;100.00;100270.19;5100828;28;20047;-66
2024/01/01 10:52:18;;;;;;;10.35;3.33;;;;;;;7.78;100.00;100258.81;5072502;28;20044;-67
2024/01/01 10:55:15;;;;;;;10.80;3.28;;;;;;;7.75;100.00;100265.56;5134879;27;20051;-66
2024/01/01 10:58:22;;;;;;;10.95;3.58;;;;;;;7.77;100.00;100262.59;5120260;27;20526;-67
2024/01/01 11:01:16;;;;;;;12.85;3.72;;;;;;;7.78;100.00;100259.63;5105993;28;20089;-67
2024/01/01 11:04:05;;;;;;;10.68;3.50;;;;;;;7.76;100.00;100260.97;5099811;28;20065;-67
2024/01/01 11:06:53;;;;;;;11.13;3.40;;;;;;;7.80;100.00;100267.50;5114911;27;20466;-66
2024/01/01 11:09:48;;;;;;;13.82;3.95;;;;;;;7.88;100.00;100258.84;5087570;28;20124;-67
2024/01/01 11:12:37;;;;;;;13.68;3.83;;;;;;;7.85;100.00;100260.19;5093638;28;20055;-67
2024/01/01 11:15:43;;;;;;;15.13;4.50;;;;;;;7.82;100.00;100273.47;5080601;28;20123;-66
2024/01/01 11:18:31;;;;;;;;;;;;;;;7.82;100.00;100263.44;5076218;28;20037;-65
2024/01/01 11:21:30;;;;;;;13.48;4.32;;;;;;;7.95;100.00;100281.13;5088024;28;19927;-67
2024/01/01 11:24:41;;;;;;;15.50;4.45;;;;;;;8.01;100.00;100281.97;5080216;28;20051;-68
2024/01/01 11:27:35;;;;;;;15.85;4.60;;;;;;;7.98;100.00;100283.31;5113559;28;20077;-67
2024/01/01 11:30:23;;;;;;;18.80;4.57;;;;;;;7.97;100.00;100275.44;5097649;28;20032;-65
2024/01/01 11:33:12;;;;;;;18.30;4.72;;;;;;;7.97;100.00;100294.44;5086732;28;20514;-66
2024/01/01 11:36:10;;;;;;;18.27;4.55;;;;;;;7.98;100.00;100296.06;5114546;28;20039;-67
2024/01/01 11:38:59;;;;;;;18.52;5.18;;;;;;;8.06;100.00;100290.97;5081537;28;20048;-67
2024/01/01 11:41:47;;;;;;;15.55;4.78;;;;;;;8.14;100.00;100288.81;5079567;28;20040;-66
2024/01/01 11:44:35;;;;;;;15.07;4.00;;;;;;;8.13;100.00;100298.03;5115465;27;20036;-65
2024/01/01 11:47:23;;;;;;;15.23;3.97;;;;;;;8.07;100.00;100294.47;5113736;28;20044;-65
2024/01/01 11:50:12;;;;;;;17.85;4.30;;;;;;;8.04;100.00;100306.69;5098008;28;20051;-65
2024/01/01 11:53:01;;;;;;;14.73;4.18;;;;;;;8.05;100.00;100313.72;5085302;28;20415;-67
2024/01/01 11:55:50;;;;;;;15.55;4.30;;;;;;;8.14;100.00;100310.53;5104240;27;20443;-66
2024/01/01 11:58:38;;;;;;;14.35;3.92;;;;;;;8.15;100.00;100314.88;5106149;28;20044;-66
2024/01/01 12:01:30;;;;;;;16.63;4.60;;;;;;;8.17;100.00;100310.00;5098684;28;20043;-66
2024/01/01 12:04:19;;;;;;;14.13;4.18;;;;;;;8.15;100.00;100315.66;5082742;28;20516;-65
2024/01/01 12:07:07;;;;;;;16.60;4.50;;;;;;;8.20;100.00;100320.31;5097738;28;20062;-66
2024/01/01 12:10:06;;;;;;;15.10;4.35;;;;;;;8.18;100.00;100317.03;5114625;28;20500;-67
2024/01/01 12:12:59;;;;;;;15.88;4.38;;;;;;;8.18;100.00;100317.88;5099527;28;20047;-67
2024/01/01 12:15:51;;;;;;;18.08;4.78;;;;;;;8.20;100.00;100304.88;5109798;27;20095;-66
2024/01/01 12:18:39;;;;;;;17.63;4.30;;;;;;;8.29;100.00;100313.31;5093557;28;20093;-66
2024/01/01 12:21:41;;;;;;;21.98;5.15;;;;;;;8.33;100.00;100306.25;5111996;28;20126;-66
2024/01/01 12:24:29;;;;;;;18.58;4.93;;;;;;;8.39;100.00;100298.94;5098770;28;20043;-66
2024/01/01 12:27:17;;;;;;;17.08;4.35;;;;;;;8.34;100.00;100307.88;5114613;28;20074;-66
2024/01/01 12:30:06;;;;;;;18.73;4.90;;;;;;;8.35;100.00;100301.41;5102678;27;20097;-65
2024/01/01 12:32:55;;;;;;;14.85;4.53;;;;;;;8.35;100.00;100306.81;5119378;28;20103;-65
2024/01/01 12:35:43;;;;;;;12.13;4.05;;;;;;;8.39;100.00;100307.09;5120737;28;20048;-64
2024/01/01 12:38:31;;;;;;;17.80;4.47;;;;;;;8.40;100.00;100304.16;5099757;28;20499;-65
2024/01/01 12:41:20;;;;;;;17.95;4.72;;;;;;;8.37;100.00;100314.69;5106262;28;20054;-64
2024/01/01 12:44:09;;;;;;;17.85;4.30;;;;;;;8.35;100.00;100316.88;5122721;28;20385;-63
2024/01/01 12:46:57;;;;;;;17.00;4.78;;;;;;;8.31;100.00;100316.56;5103966;28;20080;-65
2024/01/01 12:49:46;;;;;;;18.48;4.90;;;;;;;8.36;100.00;100316.59;5093194;28;20097;-65
2024/01/01 12:52:38;;;;;;;16.75;4.40;;;;;;;8.35;100.00;100320.41;5090445;28;20178;-65
2024/01/01 12:55:26;;;;;;;16.52;4.47;;;;;;;8.32;100.00;100316.31;5098161;28;20130;-66
2024/01/01 12:58:14;;;;;;;17.58;4.68;;;;;;;8.31;100.00;100319.28;5104324;27;20096;-65
2024/01/01 13:01:02;;;;;;;15.52;4.50;;;;;;;8.31;100.00;100317.38;5132138;27;20085;-66
2024/01/01 13:03:50;;;;;;;18.85;5.28;;;;;;;8.27;100.00;100320.88;5112788;27;20096;-66
2024/01/01 13:06:39;;;;;;;18.27;5.28;;;;;;;8.32;100.00;100324.47;5106685;28;20122;-65